createdAt,value
2019-03-22T00:02:09.984Z,74.20
2019-03-22T00:04:36.233Z,75.06
2019-03-22T00:07:02.442Z,74.45
2019-03-22T00:09:28.622Z,74.08
2019-03-22T00:11:54.729Z,72.81
2019-03-22T00:14:20.800Z,72.46
2019-03-22T00:16:46.886Z,72.23
2019-03-22T00:19:13.085Z,72.76
2019-03-22T00:21:39.151Z,73.22
2019-03-22T00:24:05.377Z,73.98
2019-03-22T00:26:32.660Z,73.08
2019-03-22T00:28:58.806Z,72.50
2019-03-22T00:31:25.168Z,72.59
2019-03-22T00:33:51.238Z,71.83
2019-03-22T00:36:17.345Z,72.49
2019-03-22T00:38:43.453Z,72.46
2019-03-22T00:41:09.530Z,73.35
2019-03-22T00:43:35.735Z,73.20
2019-03-22T00:46:01.813Z,73.98
2019-03-22T00:48:28.161Z,73.88
2019-03-22T00:50:54.365Z,74.11
2019-03-22T00:53:20.455Z,73.87
2019-03-22T00:55:46.607Z,73.47
2019-03-22T00:58:12.667Z,73.46
2019-03-22T01:00:38.957Z,73.95
2019-03-22T01:03:05.137Z,73.90
2019-03-22T01:05:31.364Z,74.09
2019-03-22T01:07:57.455Z,74.25
2019-03-22T01:10:23.549Z,74.01
2019-03-22T01:12:49.637Z,73.37
2019-03-22T01:15:15.932Z,73.56
2019-03-22T01:17:42.128Z,73.46
2019-03-22T01:20:09.820Z,74.28
2019-03-22T01:22:36.036Z,75.15
2019-03-22T01:25:04.340Z,74.80
2019-03-22T01:27:39.911Z,72.56
2019-03-22T01:29:58.397Z,73.49
2019-03-22T01:32:25.588Z,73.41
2019-03-22T01:34:51.675Z,72.99
2019-03-22T01:37:17.755Z,73.10
2019-03-22T01:39:43.852Z,73.58
2019-03-22T01:42:10.040Z,73.10
2019-03-22T01:44:36.236Z,73.57
2019-03-22T01:47:02.632Z,73.42
2019-03-22T01:49:28.709Z,74.02
2019-03-22T01:51:54.901Z,75.09
2019-03-22T01:54:20.973Z,75.82
2019-03-22T01:56:47.097Z,77.03
2019-03-22T01:59:13.313Z,77.42
2019-03-22T02:01:39.487Z,77.83
2019-03-22T02:04:05.704Z,76.67
2019-03-22T02:06:31.913Z,75.65
2019-03-22T02:08:58.097Z,75.04
2019-03-22T02:11:24.276Z,74.44
2019-03-22T02:13:50.383Z,74.30
2019-03-22T02:16:16.465Z,74.01
2019-03-22T02:18:42.734Z,74.18
2019-03-22T02:21:09.037Z,74.20
2019-03-22T02:23:35.212Z,75.16
2019-03-22T02:26:01.329Z,75.58
2019-03-22T02:28:27.429Z,76.16
2019-03-22T02:30:53.651Z,75.81
2019-03-22T02:33:19.819Z,76.75
2019-03-22T02:35:46.030Z,78.73
2019-03-22T02:38:12.121Z,77.57
2019-03-22T02:40:38.230Z,77.17
2019-03-22T02:43:04.413Z,77.63
2019-03-22T02:45:30.521Z,77.15
2019-03-22T02:47:56.817Z,76.96
2019-03-22T02:50:22.910Z,76.73
2019-03-22T02:52:49.078Z,76.86
2019-03-22T02:55:15.576Z,76.61
2019-03-22T02:57:41.931Z,77.02
2019-03-22T03:00:11.712Z,77.15
2019-03-22T03:02:37.913Z,76.73
2019-03-22T03:05:06.594Z,75.70
2019-03-22T03:07:32.691Z,75.18
2019-03-22T03:09:58.976Z,76.33
2019-03-22T03:12:25.094Z,76.22
2019-03-22T03:14:51.297Z,76.24
2019-03-22T03:17:17.569Z,76.28
2019-03-22T03:19:43.684Z,76.27
2019-03-22T03:22:09.799Z,75.91
2019-03-22T03:24:35.973Z,75.70
2019-03-22T03:27:02.173Z,75.46
2019-03-22T03:29:28.278Z,76.40
2019-03-22T03:31:54.443Z,76.35
2019-03-22T03:34:20.517Z,76.99
2019-03-22T03:36:46.711Z,76.92
2019-03-22T03:39:12.849Z,77.32
2019-03-22T03:41:39.036Z,77.33
2019-03-22T03:44:05.337Z,75.02
2019-03-22T03:46:32.615Z,74.65
2019-03-22T03:48:58.713Z,76.74
2019-03-22T03:51:24.853Z,78.00
2019-03-22T03:53:51.179Z,78.27
2019-03-22T03:56:17.342Z,78.01
2019-03-22T03:58:52.099Z,76.91
2019-03-22T04:01:11.426Z,77.27
2019-03-22T04:03:37.504Z,77.53
2019-03-22T04:06:03.714Z,77.97
2019-03-22T04:08:29.915Z,77.09
2019-03-22T04:10:56.051Z,77.23
2019-03-22T04:13:22.141Z,76.65
2019-03-22T04:15:48.199Z,75.41
2019-03-22T04:18:14.291Z,75.44
2019-03-22T04:20:40.350Z,75.38
2019-03-22T04:23:06.465Z,74.93
2019-03-22T04:25:32.533Z,74.60
2019-03-22T04:27:58.657Z,75.19
2019-03-22T04:30:24.704Z,74.71
2019-03-22T04:32:50.881Z,74.25
2019-03-22T04:35:16.977Z,74.24
2019-03-22T04:37:43.172Z,75.03
2019-03-22T04:40:21.275Z,76.30
2019-03-22T04:42:47.424Z,77.14
2019-03-22T04:45:13.578Z,77.65
2019-03-22T04:47:40.114Z,77.18
2019-03-22T04:50:06.835Z,77.81
2019-03-22T04:52:33.325Z,77.96
2019-03-22T04:55:00.510Z,78.09
2019-03-22T04:57:27.001Z,78.04
2019-03-22T04:59:53.875Z,78.04
2019-03-22T05:02:20.501Z,78.07
2019-03-22T05:04:47.595Z,78.68
2019-03-22T05:07:14.398Z,78.79
2019-03-22T05:09:41.195Z,77.61
2019-03-22T05:12:10.381Z,77.56
2019-03-22T05:14:39.876Z,76.77
2019-03-22T05:17:08.222Z,75.93
2019-03-22T05:19:37.189Z,75.36
2019-03-22T05:22:05.792Z,76.38
2019-03-22T05:24:34.477Z,75.49
2019-03-22T05:27:01.301Z,76.86
2019-03-22T05:29:31.167Z,77.81
2019-03-22T05:32:05.376Z,77.84
2019-03-22T05:34:31.610Z,76.77
2019-03-22T05:36:57.806Z,78.27
2019-03-22T05:39:23.906Z,78.31
2019-03-22T05:41:49.988Z,77.65
2019-03-22T05:44:16.206Z,77.14
2019-03-22T05:46:42.382Z,76.99
2019-03-22T05:49:09.591Z,76.50
2019-03-22T05:51:35.724Z,77.12
2019-03-22T05:54:01.996Z,76.30
2019-03-22T05:56:28.081Z,76.62
2019-03-22T05:58:54.293Z,76.02
2019-03-22T06:01:20.442Z,76.00
2019-03-22T06:03:46.626Z,75.70
2019-03-22T06:06:12.823Z,75.60
2019-03-22T06:08:38.901Z,76.81
2019-03-22T06:11:05.079Z,76.99
2019-03-22T06:13:31.269Z,76.65
2019-03-22T06:15:57.346Z,76.05
2019-03-22T06:18:23.482Z,75.69
2019-03-22T06:20:49.611Z,75.71
2019-03-22T06:23:15.812Z,75.73
2019-03-22T06:25:42.024Z,75.45
2019-03-22T06:28:08.112Z,75.86
2019-03-22T06:30:34.210Z,75.69
2019-03-22T06:33:00.294Z,75.63
2019-03-22T06:35:26.492Z,75.91
2019-03-22T06:37:52.590Z,76.58
2019-03-22T06:40:19.986Z,76.89
2019-03-22T06:42:46.192Z,76.87
2019-03-22T06:45:12.471Z,76.90
2019-03-22T06:47:38.651Z,76.73
2019-03-22T06:50:06.069Z,76.59
2019-03-22T06:52:32.178Z,76.69
2019-03-22T06:54:58.271Z,76.38
2019-03-22T06:57:24.370Z,76.30
2019-03-22T06:59:50.467Z,75.66
2019-03-22T07:02:16.541Z,76.02
2019-03-22T07:04:42.645Z,75.85
2019-03-22T07:07:08.740Z,75.93
2019-03-22T07:09:34.942Z,76.27
2019-03-22T07:12:01.325Z,77.00
2019-03-22T07:14:27.543Z,77.36
2019-03-22T07:16:53.814Z,77.69
2019-03-22T07:19:20.018Z,76.93
2019-03-22T07:21:46.268Z,75.68
2019-03-22T07:24:12.392Z,75.46
2019-03-22T07:26:38.465Z,73.59
2019-03-22T07:29:04.689Z,72.76
2019-03-22T07:31:30.791Z,71.42
2019-03-22T07:33:56.875Z,70.74
2019-03-22T07:36:23.096Z,72.33
2019-03-22T07:38:49.404Z,72.42
2019-03-22T07:41:15.712Z,71.73
2019-03-22T07:43:42.104Z,70.81
2019-03-22T07:46:08.536Z,71.00
2019-03-22T07:48:34.817Z,70.40
2019-03-22T07:51:01.047Z,68.94
2019-03-22T07:53:27.254Z,69.44
2019-03-22T07:55:53.598Z,69.44
2019-03-22T07:58:19.688Z,68.25
2019-03-22T08:00:45.790Z,66.40
2019-03-22T08:03:11.990Z,62.68
2019-03-22T08:05:38.094Z,61.69
2019-03-22T08:08:04.331Z,62.43
2019-03-22T08:10:30.438Z,62.20
2019-03-22T08:12:56.557Z,62.85
2019-03-22T08:15:28.254Z,63.43
2019-03-22T08:17:57.007Z,63.43
2019-03-22T08:20:22.558Z,61.28
2019-03-22T08:22:48.770Z,60.53
2019-03-22T08:25:14.902Z,59.62
2019-03-22T08:27:41.032Z,60.26
2019-03-22T08:30:07.351Z,58.76
2019-03-22T08:32:33.534Z,57.06
2019-03-22T08:34:59.751Z,56.56
2019-03-22T08:37:27.109Z,55.48
2019-03-22T08:39:55.816Z,55.05
2019-03-22T08:42:21.433Z,55.64
2019-03-22T08:44:47.642Z,53.30
2019-03-22T08:47:13.812Z,53.92
2019-03-22T08:49:40.114Z,54.58
2019-03-22T08:52:06.626Z,53.58
2019-03-22T08:54:32.811Z,51.76
2019-03-22T08:56:59.138Z,51.44
2019-03-22T08:59:25.333Z,51.47
2019-03-22T09:01:51.572Z,51.77
2019-03-22T09:04:17.779Z,51.31
2019-03-22T09:06:43.871Z,51.45
2019-03-22T09:09:09.998Z,51.19
2019-03-22T09:11:36.199Z,51.37
2019-03-22T09:14:02.531Z,49.08
2019-03-22T09:16:30.866Z,49.06
2019-03-22T09:18:56.780Z,48.89
2019-03-22T09:21:22.875Z,50.22
2019-03-22T09:23:49.079Z,49.22
2019-03-22T09:26:16.398Z,50.54
2019-03-22T09:28:42.556Z,51.70
2019-03-22T09:31:10.647Z,52.28
2019-03-22T09:33:36.872Z,51.95
2019-03-22T09:36:03.233Z,51.57
2019-03-22T09:38:29.515Z,49.94
2019-03-22T09:40:55.825Z,50.10
2019-03-22T09:43:21.931Z,50.46
2019-03-22T09:45:48.110Z,51.23
2019-03-22T09:48:14.229Z,50.33
2019-03-22T09:50:40.504Z,50.47
2019-03-22T09:53:06.570Z,51.47
2019-03-22T09:55:33.884Z,51.82
2019-03-22T09:58:00.221Z,52.45
2019-03-22T10:00:31.417Z,49.86
2019-03-22T10:02:58.051Z,51.33
2019-03-22T10:05:24.249Z,51.27
2019-03-22T10:07:50.536Z,49.38
2019-03-22T10:10:16.840Z,48.69
2019-03-22T10:12:43.219Z,49.09
2019-03-22T10:15:09.424Z,48.26
2019-03-22T10:17:35.569Z,47.42
2019-03-22T10:20:03.304Z,48.63
2019-03-22T10:22:29.382Z,48.45
2019-03-22T10:24:55.483Z,47.60
2019-03-22T10:27:21.781Z,48.16
2019-03-22T10:29:47.921Z,48.17
2019-03-22T10:32:14.090Z,48.50
2019-03-22T10:34:40.286Z,46.46
2019-03-22T10:37:06.448Z,47.73
2019-03-22T10:39:32.579Z,48.20
2019-03-22T10:41:58.641Z,46.77
2019-03-22T10:44:24.756Z,47.35
2019-03-22T10:46:50.888Z,47.10
2019-03-22T10:49:16.944Z,47.50
2019-03-22T10:51:55.801Z,48.22
2019-03-22T10:54:11.248Z,45.85
2019-03-22T10:56:37.473Z,46.86
2019-03-22T10:59:04.647Z,46.91
2019-03-22T11:01:30.973Z,45.28
2019-03-22T11:03:57.308Z,45.20
2019-03-22T11:06:26.325Z,45.49
2019-03-22T11:08:51.820Z,45.89
2019-03-22T11:11:18.019Z,46.99
2019-03-22T11:13:44.224Z,48.25
2019-03-22T11:16:10.445Z,48.35
2019-03-22T11:18:37.563Z,48.38
2019-03-22T11:21:05.359Z,45.75
2019-03-22T11:23:31.890Z,44.76
2019-03-22T11:26:04.066Z,44.90
2019-03-22T11:28:26.014Z,44.33
2019-03-22T11:30:52.358Z,44.34
2019-03-22T11:33:18.440Z,43.67
2019-03-22T11:35:44.771Z,43.67
2019-03-22T11:38:10.858Z,42.83
2019-03-22T11:40:37.210Z,42.14
2019-03-22T11:43:08.659Z,42.08
2019-03-22T11:45:31.829Z,41.21
2019-03-22T11:47:58.033Z,42.55
2019-03-22T11:50:24.417Z,43.11
2019-03-22T11:52:50.717Z,41.69
2019-03-22T11:55:17.341Z,40.93
2019-03-22T11:57:43.563Z,40.12
2019-03-22T12:00:13.764Z,42.39
2019-03-22T12:02:40.079Z,40.22
2019-03-22T12:05:08.182Z,41.07
2019-03-22T12:07:34.384Z,40.32
2019-03-22T12:10:00.543Z,39.95
2019-03-22T12:12:26.647Z,38.59
2019-03-22T12:14:52.838Z,38.47
2019-03-22T12:17:23.057Z,38.88
2019-03-22T12:19:49.248Z,38.37
2019-03-22T12:22:15.469Z,39.90
2019-03-22T12:24:41.665Z,39.55
2019-03-22T12:27:07.771Z,39.73
2019-03-22T12:29:34.377Z,39.59
2019-03-22T12:32:00.667Z,37.49
2019-03-22T12:34:26.833Z,39.07
2019-03-22T12:36:53.663Z,39.45
2019-03-22T12:39:19.880Z,38.98
2019-03-22T12:41:46.165Z,36.99
2019-03-22T12:44:12.386Z,38.15
2019-03-22T12:46:40.601Z,36.57
2019-03-22T12:49:06.747Z,36.06
2019-03-22T12:51:32.844Z,36.39
2019-03-22T12:53:59.071Z,37.43
2019-03-22T12:56:25.273Z,35.85
2019-03-22T12:58:51.595Z,35.04
2019-03-22T13:01:17.998Z,33.39
2019-03-22T13:03:45.234Z,35.60
2019-03-22T13:06:11.468Z,35.04
2019-03-22T13:08:37.654Z,34.73
2019-03-22T13:11:03.994Z,33.79
2019-03-22T13:13:30.209Z,34.48
2019-03-22T13:15:56.333Z,33.54
2019-03-22T13:18:22.539Z,33.13
2019-03-22T13:20:48.874Z,33.67
2019-03-22T13:23:15.085Z,34.74
2019-03-22T13:25:42.474Z,34.65
2019-03-22T13:28:08.583Z,35.31
2019-03-22T13:30:35.413Z,33.19
2019-03-22T13:33:01.767Z,32.27
2019-03-22T13:35:28.133Z,33.31
2019-03-22T13:37:54.454Z,34.12
2019-03-22T13:40:20.555Z,35.93
2019-03-22T13:42:46.856Z,34.79
2019-03-22T13:45:13.178Z,33.33
2019-03-22T13:47:39.377Z,34.71
2019-03-22T13:50:07.006Z,35.87
2019-03-22T13:52:33.227Z,35.14
2019-03-22T13:54:59.371Z,35.82
2019-03-22T13:57:25.449Z,37.75
2019-03-22T13:59:51.627Z,38.00
2019-03-22T14:02:17.965Z,38.00
2019-03-22T14:04:44.186Z,37.51
2019-03-22T14:07:10.519Z,37.63
2019-03-22T14:09:36.989Z,37.81
2019-03-22T14:12:03.298Z,35.73
2019-03-22T14:14:29.511Z,36.25
2019-03-22T14:16:55.731Z,35.10
2019-03-22T14:19:21.947Z,35.15
2019-03-22T14:21:48.230Z,36.31
2019-03-22T14:24:14.515Z,35.81
2019-03-22T14:26:40.762Z,35.67
2019-03-22T14:29:06.976Z,36.32
2019-03-22T14:31:33.260Z,36.83
2019-03-22T14:33:59.343Z,36.32
2019-03-22T14:36:25.460Z,35.31
2019-03-22T14:38:51.628Z,37.36
2019-03-22T14:41:17.815Z,36.39
2019-03-22T14:43:44.041Z,36.33
2019-03-22T14:46:10.335Z,37.06
2019-03-22T14:48:36.655Z,37.71
2019-03-22T14:51:02.867Z,37.23
2019-03-22T14:53:29.219Z,37.68
2019-03-22T14:55:55.341Z,37.15
2019-03-22T14:58:21.442Z,36.62
2019-03-22T15:00:47.789Z,35.35
2019-03-22T15:03:22.481Z,36.50
2019-03-22T15:05:44.155Z,36.87
2019-03-22T15:08:10.351Z,36.47
2019-03-22T15:10:36.617Z,36.94
2019-03-22T15:13:03.028Z,36.38
2019-03-22T15:15:34.085Z,36.39
2019-03-22T15:18:18.931Z,36.87
2019-03-22T15:21:03.922Z,36.67
2019-03-22T15:23:31.967Z,35.67
2019-03-22T15:26:00.174Z,37.08
2019-03-22T15:28:44.561Z,35.56
2019-03-22T15:31:29.636Z,35.45
2019-03-22T15:34:14.479Z,36.60
2019-03-22T15:37:00.446Z,35.93
2019-03-22T15:39:28.776Z,36.89
2019-03-22T15:41:55.232Z,36.37
2019-03-22T15:46:47.636Z,36.17
2019-03-22T15:49:13.766Z,35.77
2019-03-22T15:51:39.966Z,36.39
2019-03-22T15:54:06.167Z,36.40
2019-03-22T15:56:32.347Z,37.10
2019-03-22T15:58:58.715Z,37.98
2019-03-22T16:01:24.767Z,36.83
2019-03-22T16:03:50.986Z,36.54
2019-03-22T16:06:17.078Z,36.50
2019-03-22T16:08:43.163Z,37.35
2019-03-22T16:11:09.276Z,36.76
2019-03-22T16:13:35.479Z,37.20
2019-03-22T16:16:01.604Z,36.71
2019-03-22T16:18:27.815Z,36.79
2019-03-22T16:20:59.947Z,36.78
2019-03-22T16:23:22.162Z,36.29
2019-03-22T16:25:48.565Z,36.67
2019-03-22T16:28:14.777Z,36.41
2019-03-22T16:30:40.976Z,35.59
2019-03-22T16:33:07.219Z,35.55
2019-03-22T16:35:33.306Z,35.42
2019-03-22T16:37:59.553Z,34.64
2019-03-22T16:40:25.646Z,35.37
2019-03-22T16:42:51.766Z,35.69
2019-03-22T16:45:32.935Z,35.45
2019-03-22T16:47:59.149Z,34.56
2019-03-22T16:50:25.340Z,34.47
2019-03-22T16:52:52.538Z,35.34
2019-03-22T16:55:18.852Z,34.93
2019-03-22T16:57:45.143Z,34.58
2019-03-22T17:00:11.560Z,34.38
2019-03-22T17:02:37.672Z,35.67
2019-03-22T17:05:05.858Z,36.43
2019-03-22T17:07:31.989Z,36.65
2019-03-22T17:09:58.625Z,37.63
2019-03-22T17:12:24.785Z,38.27
2019-03-22T17:14:51.046Z,37.77
2019-03-22T17:17:17.216Z,38.48
2019-03-22T17:19:44.950Z,38.64
2019-03-22T17:22:11.281Z,38.79
2019-03-22T17:24:37.405Z,39.39
2019-03-22T17:27:03.714Z,39.62
2019-03-22T17:29:29.801Z,39.45
2019-03-22T17:31:56.397Z,39.97
2019-03-22T17:34:22.554Z,39.81
2019-03-22T17:36:48.785Z,39.99
2019-03-22T17:39:14.992Z,40.33
2019-03-22T17:41:41.300Z,40.69
2019-03-22T17:44:07.428Z,42.60
2019-03-22T17:46:33.659Z,41.92
2019-03-22T17:48:59.769Z,41.59
2019-03-22T17:51:26.015Z,40.94
2019-03-22T17:53:52.211Z,41.79
2019-03-22T17:56:18.448Z,42.56
2019-03-22T17:58:44.933Z,43.11
2019-03-22T18:01:11.291Z,42.43
2019-03-22T18:03:37.561Z,42.90
2019-03-22T18:06:03.891Z,43.50
2019-03-22T18:08:30.133Z,43.85
2019-03-22T18:10:56.362Z,44.34
2019-03-22T18:13:22.564Z,43.91
2019-03-22T18:15:48.708Z,44.34
2019-03-22T18:18:14.923Z,44.20
2019-03-22T18:20:41.224Z,45.18
2019-03-22T18:23:07.443Z,45.88
2019-03-22T18:25:33.559Z,45.73
2019-03-22T18:27:59.837Z,45.36
2019-03-22T18:30:26.060Z,45.17
2019-03-22T18:32:52.267Z,47.52
2019-03-22T18:35:18.466Z,47.51
2019-03-22T18:37:44.702Z,46.37
2019-03-22T18:40:12.744Z,45.53
2019-03-22T18:42:38.968Z,45.34
2019-03-22T18:45:07.298Z,46.92
2019-03-22T18:47:33.640Z,47.06
2019-03-22T18:50:00.021Z,45.81
2019-03-22T18:52:27.654Z,47.38
2019-03-22T18:54:55.986Z,47.84
2019-03-22T18:57:22.223Z,47.54
2019-03-22T18:59:48.343Z,46.17
2019-03-22T19:02:14.568Z,47.00
2019-03-22T19:04:44.421Z,46.65
2019-03-22T19:07:09.114Z,46.95
2019-03-22T19:09:35.385Z,46.95
2019-03-22T19:12:01.750Z,47.19
2019-03-22T19:14:29.102Z,47.41
2019-03-22T19:16:55.547Z,47.51
2019-03-22T19:19:22.752Z,48.36
2019-03-22T19:21:48.990Z,48.97
2019-03-22T19:24:16.140Z,48.85
2019-03-22T19:26:42.284Z,48.81
2019-03-22T19:29:08.361Z,48.60
2019-03-22T19:31:34.733Z,49.14
2019-03-22T19:34:00.951Z,48.39
2019-03-22T19:36:27.314Z,49.19
2019-03-22T19:38:53.437Z,48.70
2019-03-22T19:41:19.544Z,49.21
2019-03-22T19:43:46.925Z,49.17
2019-03-22T19:46:13.305Z,49.24
2019-03-22T19:48:39.442Z,49.30
2019-03-22T19:51:05.676Z,49.31
2019-03-22T19:53:31.935Z,49.44
2019-03-22T19:55:58.228Z,49.46
2019-03-22T19:58:24.549Z,49.32
2019-03-22T20:00:50.777Z,49.30
2019-03-22T20:03:17.105Z,49.27
2019-03-22T20:05:44.297Z,49.38
2019-03-22T20:08:13.730Z,49.53
2019-03-22T20:10:38.614Z,49.38
2019-03-22T20:13:04.906Z,49.59
2019-03-22T20:15:31.355Z,49.84
2019-03-22T20:17:57.669Z,49.65
2019-03-22T20:20:23.970Z,49.35
2019-03-22T20:22:50.098Z,49.59
2019-03-22T20:25:16.494Z,49.98
2019-03-22T20:27:42.938Z,50.10
2019-03-22T20:30:14.593Z,50.30
2019-03-22T20:32:41.038Z,50.20
2019-03-22T20:35:15.700Z,50.37
2019-03-22T20:37:35.945Z,50.75
2019-03-22T20:40:04.495Z,50.90
2019-03-22T20:42:30.813Z,51.65
2019-03-22T20:44:57.071Z,51.02
2019-03-22T20:47:23.342Z,51.44
2019-03-22T20:49:49.699Z,51.39
2019-03-22T20:52:16.061Z,51.41
2019-03-22T20:54:42.288Z,51.61
2019-03-22T20:57:08.517Z,51.60
2019-03-22T20:59:34.662Z,51.50
2019-03-22T21:02:00.878Z,51.46
2019-03-22T21:04:27.096Z,51.52
2019-03-22T21:06:53.311Z,51.58
2019-03-22T21:09:19.474Z,52.15
2019-03-22T21:11:45.725Z,52.04
2019-03-22T21:14:11.803Z,52.36
2019-03-22T21:16:38.023Z,52.37
2019-03-22T21:19:04.352Z,52.70
2019-03-22T21:21:36.364Z,52.63
2019-03-22T21:23:59.859Z,53.04
2019-03-22T21:26:26.114Z,53.60
2019-03-22T21:28:52.242Z,53.82
2019-03-22T21:31:19.588Z,53.96
2019-03-22T21:33:45.996Z,54.19
2019-03-22T21:36:12.207Z,54.04
2019-03-22T21:38:38.464Z,55.40
2019-03-22T21:41:04.782Z,54.98
2019-03-22T21:43:30.935Z,55.31
2019-03-22T21:45:57.076Z,56.27
2019-03-22T21:48:23.397Z,55.62
2019-03-22T21:50:49.649Z,55.93
2019-03-22T21:53:15.892Z,55.76
2019-03-22T21:55:42.237Z,56.09
2019-03-22T21:58:08.497Z,56.85
2019-03-22T22:00:34.733Z,57.19
2019-03-22T22:03:00.976Z,57.30
2019-03-22T22:05:27.664Z,56.88
2019-03-22T22:07:54.758Z,56.95
2019-03-22T22:10:21.055Z,57.12
2019-03-22T22:12:47.314Z,56.94
2019-03-22T22:15:13.577Z,57.15
2019-03-22T22:17:40.027Z,57.48
2019-03-22T22:20:06.698Z,57.23
2019-03-22T22:22:33.096Z,57.52
2019-03-22T22:24:59.225Z,57.58
2019-03-22T22:27:25.360Z,58.48
2019-03-22T22:29:51.616Z,58.61
2019-03-22T22:32:17.872Z,58.86
2019-03-22T22:34:44.191Z,59.09
2019-03-22T22:37:10.512Z,60.30
2019-03-22T22:39:36.809Z,59.29
2019-03-22T22:42:03.289Z,59.29
2019-03-22T22:44:29.528Z,59.80
2019-03-22T22:46:55.839Z,60.16
2019-03-22T22:49:22.595Z,59.64
2019-03-22T22:51:48.851Z,59.96
2019-03-22T22:54:15.653Z,60.03
2019-03-22T22:56:41.774Z,61.68
2019-03-22T22:59:08.475Z,61.71
2019-03-22T23:01:34.971Z,61.71
2019-03-22T23:04:01.282Z,61.57
2019-03-22T23:06:28.081Z,62.09
2019-03-22T23:08:54.346Z,62.09
2019-03-22T23:11:21.098Z,62.72
2019-03-22T23:13:47.816Z,62.59
2019-03-22T23:16:14.266Z,63.31
2019-03-22T23:18:40.592Z,62.84
2019-03-22T23:21:06.929Z,63.60
2019-03-22T23:23:33.143Z,63.67
2019-03-22T23:25:59.376Z,63.17
2019-03-22T23:28:25.701Z,62.94
2019-03-22T23:30:51.961Z,63.54
2019-03-22T23:33:18.200Z,63.33
2019-03-22T23:35:44.481Z,63.42
2019-03-22T23:38:13.391Z,64.43
2019-03-22T23:40:39.609Z,64.39
2019-03-22T23:43:05.787Z,64.74
2019-03-22T23:45:32.253Z,64.58
2019-03-22T23:47:58.680Z,64.55
2019-03-22T23:50:24.885Z,64.37
2019-03-22T23:52:51.010Z,64.40
2019-03-22T23:55:17.125Z,65.18
2019-03-22T23:57:44.726Z,65.89
